Aviation Digital Data Service (ADDS)

Output produced by TAFs form (1651 UTC 28 November 2014)
found at http://aviationweather.gov/adds/tafs/
 
KLND 281124Z 2812/2912 31018G30KT P6SM FEW140 SCT200 WS017/26050KT 
     FM281800 26011G25KT P6SM SCT200 WS018/25050KT 
     FM290200 26020G38KT P6SM FEW140 SCT200 
     FM290900 26012G24KT P6SM FEW140 SCT200 WS015/25045KT